sensor_id;sensor_type;location;lat;lon;timestamp;temperature;humidity
3408;DHT22;1717;50.240;8.406;2022-10-23T00:00:19;14.40;99.90
3408;DHT22;1717;50.240;8.406;2022-10-23T00:02:51;14.40;99.90
3408;DHT22;1717;50.240;8.406;2022-10-23T00:05:19;14.40;99.90
3408;DHT22;1717;50.240;8.406;2022-10-23T00:07:48;14.40;99.90
3408;DHT22;1717;50.240;8.406;2022-10-23T00:10:16;14.40;99.90
3408;DHT22;1717;50.240;8.406;2022-10-23T00:12:43;14.40;99.90
3408;DHT22;1717;50.240;8.406;2022-10-23T00:15:10;14.30;99.90
3408;DHT22;1717;50.240;8.406;2022-10-23T00:17:39;14.30;99.90
3408;DHT22;1717;50.240;8.406;2022-10-23T00:20:07;14.30;99.90
3408;DHT22;1717;50.240;8.406;2022-10-23T00:22:35;14.20;99.90
3408;DHT22;1717;50.240;8.406;2022-10-23T00:25:02;14.20;99.90
3408;DHT22;1717;50.240;8.406;2022-10-23T00:27:29;14.20;99.90
3408;DHT22;1717;50.240;8.406;2022-10-23T00:29:56;14.10;99.90
3408;DHT22;1717;50.240;8.406;2022-10-23T00:32:22;14.20;99.90
3408;DHT22;1717;50.240;8.406;2022-10-23T00:34:51;14.10;99.90
3408;DHT22;1717;50.240;8.406;2022-10-23T00:37:17;14.10;99.90
3408;DHT22;1717;50.240;8.406;2022-10-23T00:39:44;14.10;99.90
3408;DHT22;1717;50.240;8.406;2022-10-23T00:42:13;14.10;99.90
3408;DHT22;1717;50.240;8.406;2022-10-23T00:45:08;14.10;99.90
3408;DHT22;1717;50.240;8.406;2022-10-23T00:47:35;14.00;99.90
3408;DHT22;1717;50.240;8.406;2022-10-23T00:50:03;14.00;99.90
3408;DHT22;1717;50.240;8.406;2022-10-23T00:52:32;14.10;99.90
3408;DHT22;1717;50.240;8.406;2022-10-23T00:54:59;14.00;99.90
3408;DHT22;1717;50.240;8.406;2022-10-23T00:57:26;13.90;99.90
3408;DHT22;1717;50.240;8.406;2022-10-23T00:59:54;13.90;99.90
3408;DHT22;1717;50.240;8.406;2022-10-23T01:02:21;13.70;99.90
3408;DHT22;1717;50.240;8.406;2022-10-23T01:04:47;13.90;99.90
3408;DHT22;1717;50.240;8.406;2022-10-23T01:07:19;13.90;99.90
3408;DHT22;1717;50.240;8.406;2022-10-23T01:09:54;13.90;99.90
3408;DHT22;1717;50.240;8.406;2022-10-23T01:12:25;13.90;99.90
3408;DHT22;1717;50.240;8.406;2022-10-23T01:15:02;13.90;99.90
3408;DHT22;1717;50.240;8.406;2022-10-23T01:17:36;13.80;99.90
3408;DHT22;1717;50.240;8.406;2022-10-23T01:20:18;13.80;99.90
3408;DHT22;1717;50.240;8.406;2022-10-23T01:23:16;13.90;99.90
3408;DHT22;1717;50.240;8.406;2022-10-23T01:29:00;13.80;99.90
3408;DHT22;1717;50.240;8.406;2022-10-23T01:31:32;13.80;99.90
3408;DHT22;1717;50.240;8.406;2022-10-23T01:34:06;13.80;99.90
3408;DHT22;1717;50.240;8.406;2022-10-23T01:36:37;13.70;99.90
3408;DHT22;1717;50.240;8.406;2022-10-23T01:39:08;13.70;99.90
3408;DHT22;1717;50.240;8.406;2022-10-23T01:41:41;13.70;99.90
3408;DHT22;1717;50.240;8.406;2022-10-23T01:44:14;13.70;99.90
3408;DHT22;1717;50.240;8.406;2022-10-23T01:46:43;13.70;99.90
3408;DHT22;1717;50.240;8.406;2022-10-23T01:49:13;13.70;99.90
3408;DHT22;1717;50.240;8.406;2022-10-23T01:51:43;13.70;99.90
3408;DHT22;1717;50.240;8.406;2022-10-23T01:54:12;13.70;99.90
3408;DHT22;1717;50.240;8.406;2022-10-23T01:56:42;13.60;99.90
3408;DHT22;1717;50.240;8.406;2022-10-23T01:59:13;13.60;99.90
3408;DHT22;1717;50.240;8.406;2022-10-23T02:01:44;13.60;99.90
3408;DHT22;1717;50.240;8.406;2022-10-23T02:04:16;13.60;99.90
3408;DHT22;1717;50.240;8.406;2022-10-23T02:06:43;13.60;99.90
3408;DHT22;1717;50.240;8.406;2022-10-23T02:09:10;13.60;99.90
3408;DHT22;1717;50.240;8.406;2022-10-23T02:11:41;13.70;99.90
3408;DHT22;1717;50.240;8.406;2022-10-23T02:14:17;13.60;99.90
3408;DHT22;1717;50.240;8.406;2022-10-23T02:16:49;13.60;99.90
3408;DHT22;1717;50.240;8.406;2022-10-23T02:19:23;13.60;99.90
3408;DHT22;1717;50.240;8.406;2022-10-23T02:21:54;13.60;99.90
3408;DHT22;1717;50.240;8.406;2022-10-23T02:24:29;13.60;99.90
3408;DHT22;1717;50.240;8.406;2022-10-23T02:27:00;13.60;99.90
3408;DHT22;1717;50.240;8.406;2022-10-23T02:29:30;13.80;99.90
3408;DHT22;1717;50.240;8.406;2022-10-23T02:32:00;13.60;99.90
3408;DHT22;1717;50.240;8.406;2022-10-23T02:34:27;13.60;99.90
3408;DHT22;1717;50.240;8.406;2022-10-23T02:36:54;13.60;99.90
3408;DHT22;1717;50.240;8.406;2022-10-23T02:39:21;13.60;99.90
3408;DHT22;1717;50.240;8.406;2022-10-23T02:41:54;13.60;99.90
3408;DHT22;1717;50.240;8.406;2022-10-23T02:44:38;13.60;99.90
3408;DHT22;1717;50.240;8.406;2022-10-23T02:47:16;13.60;99.90
3408;DHT22;1717;50.240;8.406;2022-10-23T02:49:50;13.60;99.90
3408;DHT22;1717;50.240;8.406;2022-10-23T02:52:23;13.60;99.90
3408;DHT22;1717;50.240;8.406;2022-10-23T02:55:04;13.60;99.90
3408;DHT22;1717;50.240;8.406;2022-10-23T02:57:36;13.60;99.90
3408;DHT22;1717;50.240;8.406;2022-10-23T03:00:09;13.60;99.90
3408;DHT22;1717;50.240;8.406;2022-10-23T03:02:39;13.60;99.90
3408;DHT22;1717;50.240;8.406;2022-10-23T03:05:09;13.60;99.90
3408;DHT22;1717;50.240;8.406;2022-10-23T03:07:38;13.60;99.90
3408;DHT22;1717;50.240;8.406;2022-10-23T03:10:07;13.60;99.90
3408;DHT22;1717;50.240;8.406;2022-10-23T03:12:35;13.70;99.90
3408;DHT22;1717;50.240;8.406;2022-10-23T03:15:02;13.70;99.90
3408;DHT22;1717;50.240;8.406;2022-10-23T03:17:30;13.60;99.90
3408;DHT22;1717;50.240;8.406;2022-10-23T03:19:57;13.70;99.90
3408;DHT22;1717;50.240;8.406;2022-10-23T03:22:24;13.60;99.90
3408;DHT22;1717;50.240;8.406;2022-10-23T03:24:51;13.60;99.90
3408;DHT22;1717;50.240;8.406;2022-10-23T03:27:18;13.60;99.90
3408;DHT22;1717;50.240;8.406;2022-10-23T03:29:45;13.60;99.90
3408;DHT22;1717;50.240;8.406;2022-10-23T03:32:11;13.60;99.90
3408;DHT22;1717;50.240;8.406;2022-10-23T03:34:39;13.70;99.90
3408;DHT22;1717;50.240;8.406;2022-10-23T03:37:06;13.60;99.90
3408;DHT22;1717;50.240;8.406;2022-10-23T03:39:33;13.80;99.90
3408;DHT22;1717;50.240;8.406;2022-10-23T03:42:00;13.60;99.90
3408;DHT22;1717;50.240;8.406;2022-10-23T03:44:27;13.60;99.90
3408;DHT22;1717;50.240;8.406;2022-10-23T03:46:55;13.60;99.90
3408;DHT22;1717;50.240;8.406;2022-10-23T03:49:22;13.60;99.90
3408;DHT22;1717;50.240;8.406;2022-10-23T03:51:50;13.60;99.90
3408;DHT22;1717;50.240;8.406;2022-10-23T03:54:19;13.60;99.90
3408;DHT22;1717;50.240;8.406;2022-10-23T03:56:46;13.60;99.90
3408;DHT22;1717;50.240;8.406;2022-10-23T03:59:13;13.60;99.90
3408;DHT22;1717;50.240;8.406;2022-10-23T04:01:40;13.60;99.90
3408;DHT22;1717;50.240;8.406;2022-10-23T04:04:07;13.60;99.90
3408;DHT22;1717;50.240;8.406;2022-10-23T04:06:33;13.50;99.90
3408;DHT22;1717;50.240;8.406;2022-10-23T04:09:02;13.50;99.90
3408;DHT22;1717;50.240;8.406;2022-10-23T04:11:29;13.50;99.90
3408;DHT22;1717;50.240;8.406;2022-10-23T04:13:55;13.50;99.90
3408;DHT22;1717;50.240;8.406;2022-10-23T04:16:23;13.50;99.90
3408;DHT22;1717;50.240;8.406;2022-10-23T04:18:50;13.50;99.90
3408;DHT22;1717;50.240;8.406;2022-10-23T04:21:17;13.50;99.90
3408;DHT22;1717;50.240;8.406;2022-10-23T04:23:44;13.50;99.90
3408;DHT22;1717;50.240;8.406;2022-10-23T04:26:12;13.50;99.90
3408;DHT22;1717;50.240;8.406;2022-10-23T04:28:39;13.50;99.90
3408;DHT22;1717;50.240;8.406;2022-10-23T04:31:06;13.50;99.90
3408;DHT22;1717;50.240;8.406;2022-10-23T04:33:33;13.50;99.90
3408;DHT22;1717;50.240;8.406;2022-10-23T04:35:59;13.50;99.90
3408;DHT22;1717;50.240;8.406;2022-10-23T04:38:26;13.60;99.90
3408;DHT22;1717;50.240;8.406;2022-10-23T04:40:53;13.50;99.90
3408;DHT22;1717;50.240;8.406;2022-10-23T04:43:21;13.60;99.90
3408;DHT22;1717;50.240;8.406;2022-10-23T04:45:48;13.60;99.90
3408;DHT22;1717;50.240;8.406;2022-10-23T04:48:15;13.60;99.90
3408;DHT22;1717;50.240;8.406;2022-10-23T04:50:42;13.70;99.90
3408;DHT22;1717;50.240;8.406;2022-10-23T04:53:09;13.60;99.90
3408;DHT22;1717;50.240;8.406;2022-10-23T04:55:36;13.60;99.90
3408;DHT22;1717;50.240;8.406;2022-10-23T04:58:02;13.70;99.90
3408;DHT22;1717;50.240;8.406;2022-10-23T05:00:30;13.60;99.90
3408;DHT22;1717;50.240;8.406;2022-10-23T05:02:57;13.70;99.90
3408;DHT22;1717;50.240;8.406;2022-10-23T05:05:24;13.70;99.90
3408;DHT22;1717;50.240;8.406;2022-10-23T05:07:51;13.70;99.90
3408;DHT22;1717;50.240;8.406;2022-10-23T05:10:18;13.70;99.90
3408;DHT22;1717;50.240;8.406;2022-10-23T05:12:44;13.70;99.90
3408;DHT22;1717;50.240;8.406;2022-10-23T05:15:11;13.70;99.90
3408;DHT22;1717;50.240;8.406;2022-10-23T05:17:40;13.80;99.90
3408;DHT22;1717;50.240;8.406;2022-10-23T05:20:12;13.80;99.90
3408;DHT22;1717;50.240;8.406;2022-10-23T05:22:43;14.00;99.90
3408;DHT22;1717;50.240;8.406;2022-10-23T05:25:12;13.80;99.90
3408;DHT22;1717;50.240;8.406;2022-10-23T05:27:39;13.80;99.90
3408;DHT22;1717;50.240;8.406;2022-10-23T05:30:06;13.90;99.90
3408;DHT22;1717;50.240;8.406;2022-10-23T05:32:34;13.90;99.90
3408;DHT22;1717;50.240;8.406;2022-10-23T05:35:06;13.90;99.90
3408;DHT22;1717;50.240;8.406;2022-10-23T05:37:36;13.90;99.90
3408;DHT22;1717;50.240;8.406;2022-10-23T05:40:04;13.90;99.90
3408;DHT22;1717;50.240;8.406;2022-10-23T05:42:31;13.90;99.90
3408;DHT22;1717;50.240;8.406;2022-10-23T05:44:58;13.90;99.90
3408;DHT22;1717;50.240;8.406;2022-10-23T05:47:25;13.90;99.90
3408;DHT22;1717;50.240;8.406;2022-10-23T05:49:51;13.90;99.90
3408;DHT22;1717;50.240;8.406;2022-10-23T05:52:20;13.90;99.90
3408;DHT22;1717;50.240;8.406;2022-10-23T05:54:46;13.90;99.90
3408;DHT22;1717;50.240;8.406;2022-10-23T05:57:13;13.90;99.90
3408;DHT22;1717;50.240;8.406;2022-10-23T05:59:40;13.90;99.90
3408;DHT22;1717;50.240;8.406;2022-10-23T06:02:07;13.90;99.90
3408;DHT22;1717;50.240;8.406;2022-10-23T06:04:34;13.90;99.90
3408;DHT22;1717;50.240;8.406;2022-10-23T06:07:01;13.90;99.90
3408;DHT22;1717;50.240;8.406;2022-10-23T06:09:30;13.90;99.90
3408;DHT22;1717;50.240;8.406;2022-10-23T06:11:56;13.90;99.90
3408;DHT22;1717;50.240;8.406;2022-10-23T06:14:23;14.00;99.90
3408;DHT22;1717;50.240;8.406;2022-10-23T06:16:50;14.00;99.90
3408;DHT22;1717;50.240;8.406;2022-10-23T06:19:17;14.00;99.90
3408;DHT22;1717;50.240;8.406;2022-10-23T06:21:43;14.00;99.90
3408;DHT22;1717;50.240;8.406;2022-10-23T06:24:10;14.00;99.90
3408;DHT22;1717;50.240;8.406;2022-10-23T06:26:39;14.10;99.90
3408;DHT22;1717;50.240;8.406;2022-10-23T06:29:05;14.10;99.90
3408;DHT22;1717;50.240;8.406;2022-10-23T06:31:32;14.10;99.90
3408;DHT22;1717;50.240;8.406;2022-10-23T06:33:59;14.10;99.90
3408;DHT22;1717;50.240;8.406;2022-10-23T06:36:26;14.10;99.90
3408;DHT22;1717;50.240;8.406;2022-10-23T06:38:53;14.10;99.90
3408;DHT22;1717;50.240;8.406;2022-10-23T06:41:21;14.10;99.90
3408;DHT22;1717;50.240;8.406;2022-10-23T06:43:50;14.10;99.90
3408;DHT22;1717;50.240;8.406;2022-10-23T06:46:18;14.20;99.90
3408;DHT22;1717;50.240;8.406;2022-10-23T06:48:45;14.20;99.90
3408;DHT22;1717;50.240;8.406;2022-10-23T06:51:15;14.20;99.90
3408;DHT22;1717;50.240;8.406;2022-10-23T06:53:42;14.20;99.90
3408;DHT22;1717;50.240;8.406;2022-10-23T06:56:10;14.20;99.90
3408;DHT22;1717;50.240;8.406;2022-10-23T06:58:38;14.30;99.90
3408;DHT22;1717;50.240;8.406;2022-10-23T07:01:08;14.30;99.90
3408;DHT22;1717;50.240;8.406;2022-10-23T07:03:37;14.30;99.90
3408;DHT22;1717;50.240;8.406;2022-10-23T07:06:06;14.30;99.90
3408;DHT22;1717;50.240;8.406;2022-10-23T07:08:33;14.30;99.90
3408;DHT22;1717;50.240;8.406;2022-10-23T07:11:03;14.30;99.90
3408;DHT22;1717;50.240;8.406;2022-10-23T07:13:30;14.30;99.90
3408;DHT22;1717;50.240;8.406;2022-10-23T07:15:57;14.30;99.90
3408;DHT22;1717;50.240;8.406;2022-10-23T07:18:25;14.30;99.90
3408;DHT22;1717;50.240;8.406;2022-10-23T07:20:57;14.30;99.90
3408;DHT22;1717;50.240;8.406;2022-10-23T07:23:24;14.30;99.90
3408;DHT22;1717;50.240;8.406;2022-10-23T07:25:51;14.30;99.90
3408;DHT22;1717;50.240;8.406;2022-10-23T07:28:18;14.30;99.90
3408;DHT22;1717;50.240;8.406;2022-10-23T07:30:44;14.30;99.90
3408;DHT22;1717;50.240;8.406;2022-10-23T07:33:21;14.30;99.90
3408;DHT22;1717;50.240;8.406;2022-10-23T07:35:49;14.30;99.90
3408;DHT22;1717;50.240;8.406;2022-10-23T07:38:16;14.30;99.90
3408;DHT22;1717;50.240;8.406;2022-10-23T07:40:43;14.30;99.90
3408;DHT22;1717;50.240;8.406;2022-10-23T07:43:11;14.40;99.90
3408;DHT22;1717;50.240;8.406;2022-10-23T07:45:38;14.40;99.90
3408;DHT22;1717;50.240;8.406;2022-10-23T07:48:04;14.40;99.90
3408;DHT22;1717;50.240;8.406;2022-10-23T07:50:31;14.50;99.90
3408;DHT22;1717;50.240;8.406;2022-10-23T07:53:00;14.60;99.90
3408;DHT22;1717;50.240;8.406;2022-10-23T07:55:27;14.60;99.90
3408;DHT22;1717;50.240;8.406;2022-10-23T07:57:54;14.60;99.90
3408;DHT22;1717;50.240;8.406;2022-10-23T08:00:21;14.70;99.90
3408;DHT22;1717;50.240;8.406;2022-10-23T08:02:47;14.70;99.90
3408;DHT22;1717;50.240;8.406;2022-10-23T08:05:17;14.70;99.90
3408;DHT22;1717;50.240;8.406;2022-10-23T08:07:44;14.80;99.90
3408;DHT22;1717;50.240;8.406;2022-10-23T08:10:13;14.80;99.90
3408;DHT22;1717;50.240;8.406;2022-10-23T08:12:40;14.90;99.90
3408;DHT22;1717;50.240;8.406;2022-10-23T08:15:07;14.90;99.90
3408;DHT22;1717;50.240;8.406;2022-10-23T08:17:34;15.00;99.90
3408;DHT22;1717;50.240;8.406;2022-10-23T08:20:01;15.10;99.90
3408;DHT22;1717;50.240;8.406;2022-10-23T08:22:28;15.10;99.90
3408;DHT22;1717;50.240;8.406;2022-10-23T08:24:55;15.20;99.90
3408;DHT22;1717;50.240;8.406;2022-10-23T08:27:23;15.30;99.90
3408;DHT22;1717;50.240;8.406;2022-10-23T08:29:50;15.40;99.90
3408;DHT22;1717;50.240;8.406;2022-10-23T08:32:17;15.40;99.90
3408;DHT22;1717;50.240;8.406;2022-10-23T08:34:44;15.50;99.90
3408;DHT22;1717;50.240;8.406;2022-10-23T08:37:10;15.50;99.90
3408;DHT22;1717;50.240;8.406;2022-10-23T08:39:37;15.60;99.90
3408;DHT22;1717;50.240;8.406;2022-10-23T08:42:04;15.60;99.90
3408;DHT22;1717;50.240;8.406;2022-10-23T08:44:37;15.70;99.90
3408;DHT22;1717;50.240;8.406;2022-10-23T08:47:09;15.80;99.90
3408;DHT22;1717;50.240;8.406;2022-10-23T08:49:43;15.80;99.90
3408;DHT22;1717;50.240;8.406;2022-10-23T08:52:15;15.90;99.90
3408;DHT22;1717;50.240;8.406;2022-10-23T08:54:55;16.00;99.90
3408;DHT22;1717;50.240;8.406;2022-10-23T08:57:23;16.00;99.90
3408;DHT22;1717;50.240;8.406;2022-10-23T09:00:00;16.00;99.90
3408;DHT22;1717;50.240;8.406;2022-10-23T09:02:32;16.20;99.90
3408;DHT22;1717;50.240;8.406;2022-10-23T09:05:01;16.20;99.90
3408;DHT22;1717;50.240;8.406;2022-10-23T09:07:35;16.30;99.90
3408;DHT22;1717;50.240;8.406;2022-10-23T09:10:19;16.40;99.90
3408;DHT22;1717;50.240;8.406;2022-10-23T09:12:48;16.40;99.90
3408;DHT22;1717;50.240;8.406;2022-10-23T09:15:22;16.40;99.90
3408;DHT22;1717;50.240;8.406;2022-10-23T09:17:55;16.50;99.90
3408;DHT22;1717;50.240;8.406;2022-10-23T09:20:25;16.50;99.90
3408;DHT22;1717;50.240;8.406;2022-10-23T09:22:54;16.60;99.90
3408;DHT22;1717;50.240;8.406;2022-10-23T09:25:24;16.60;99.90
3408;DHT22;1717;50.240;8.406;2022-10-23T09:27:53;16.70;99.90
3408;DHT22;1717;50.240;8.406;2022-10-23T09:30:32;16.70;99.90
3408;DHT22;1717;50.240;8.406;2022-10-23T09:33:00;16.80;99.90
3408;DHT22;1717;50.240;8.406;2022-10-23T09:35:38;16.90;99.90
3408;DHT22;1717;50.240;8.406;2022-10-23T09:38:04;16.90;99.90
3408;DHT22;1717;50.240;8.406;2022-10-23T09:40:37;17.00;99.90
3408;DHT22;1717;50.240;8.406;2022-10-23T09:43:13;17.00;99.90
3408;DHT22;1717;50.240;8.406;2022-10-23T09:45:41;17.10;99.90
3408;DHT22;1717;50.240;8.406;2022-10-23T09:48:11;17.10;99.90
3408;DHT22;1717;50.240;8.406;2022-10-23T09:50:50;17.20;99.90
3408;DHT22;1717;50.240;8.406;2022-10-23T09:53:29;17.20;99.90
3408;DHT22;1717;50.240;8.406;2022-10-23T09:55:58;17.30;99.90
3408;DHT22;1717;50.240;8.406;2022-10-23T09:58:33;17.30;99.90
3408;DHT22;1717;50.240;8.406;2022-10-23T10:01:02;17.40;99.90
3408;DHT22;1717;50.240;8.406;2022-10-23T10:03:29;17.40;99.90
3408;DHT22;1717;50.240;8.406;2022-10-23T10:05:59;17.40;99.90
3408;DHT22;1717;50.240;8.406;2022-10-23T10:08:34;17.50;99.90
3408;DHT22;1717;50.240;8.406;2022-10-23T10:11:09;17.50;99.90
3408;DHT22;1717;50.240;8.406;2022-10-23T10:13:57;17.60;99.90
3408;DHT22;1717;50.240;8.406;2022-10-23T10:16:32;17.60;99.90
3408;DHT22;1717;50.240;8.406;2022-10-23T10:19:12;17.60;99.90
3408;DHT22;1717;50.240;8.406;2022-10-23T10:21:44;17.70;99.90
3408;DHT22;1717;50.240;8.406;2022-10-23T10:24:17;17.70;99.90
3408;DHT22;1717;50.240;8.406;2022-10-23T10:26:51;17.80;99.90
3408;DHT22;1717;50.240;8.406;2022-10-23T10:29:38;17.80;99.90
3408;DHT22;1717;50.240;8.406;2022-10-23T10:32:19;17.80;99.90
3408;DHT22;1717;50.240;8.406;2022-10-23T10:34:52;17.90;99.90
3408;DHT22;1717;50.240;8.406;2022-10-23T10:37:27;17.90;99.90
3408;DHT22;1717;50.240;8.406;2022-10-23T10:40:02;18.00;99.90
3408;DHT22;1717;50.240;8.406;2022-10-23T10:42:45;18.00;99.90
3408;DHT22;1717;50.240;8.406;2022-10-23T10:45:28;18.00;99.90
3408;DHT22;1717;50.240;8.406;2022-10-23T10:48:16;18.10;99.90
3408;DHT22;1717;50.240;8.406;2022-10-23T10:50:49;18.10;99.90
3408;DHT22;1717;50.240;8.406;2022-10-23T10:53:23;18.20;99.90
3408;DHT22;1717;50.240;8.406;2022-10-23T10:55:54;18.20;99.90
3408;DHT22;1717;50.240;8.406;2022-10-23T10:58:35;18.20;99.90
3408;DHT22;1717;50.240;8.406;2022-10-23T11:01:12;18.20;99.90
3408;DHT22;1717;50.240;8.406;2022-10-23T11:03:47;18.20;99.90
3408;DHT22;1717;50.240;8.406;2022-10-23T11:06:19;18.20;99.90
3408;DHT22;1717;50.240;8.406;2022-10-23T11:08:48;18.20;99.90
3408;DHT22;1717;50.240;8.406;2022-10-23T11:11:16;18.20;99.90
3408;DHT22;1717;50.240;8.406;2022-10-23T11:13:45;18.10;99.90
3408;DHT22;1717;50.240;8.406;2022-10-23T11:16:14;18.10;99.90
3408;DHT22;1717;50.240;8.406;2022-10-23T11:18:50;18.10;99.90
3408;DHT22;1717;50.240;8.406;2022-10-23T11:21:25;18.10;99.90
3408;DHT22;1717;50.240;8.406;2022-10-23T11:24:36;18.10;99.90
3408;DHT22;1717;50.240;8.406;2022-10-23T11:30:23;18.00;99.90
3408;DHT22;1717;50.240;8.406;2022-10-23T11:33:21;18.00;99.90
3408;DHT22;1717;50.240;8.406;2022-10-23T11:36:04;18.00;99.90
3408;DHT22;1717;50.240;8.406;2022-10-23T11:38:33;18.00;99.90
3408;DHT22;1717;50.240;8.406;2022-10-23T11:41:05;18.00;99.90
3408;DHT22;1717;50.240;8.406;2022-10-23T11:43:46;18.10;99.90
3408;DHT22;1717;50.240;8.406;2022-10-23T11:46:14;18.10;99.90
3408;DHT22;1717;50.240;8.406;2022-10-23T11:48:55;18.10;99.90
3408;DHT22;1717;50.240;8.406;2022-10-23T11:51:29;18.10;99.90
3408;DHT22;1717;50.240;8.406;2022-10-23T11:54:21;18.10;99.90
3408;DHT22;1717;50.240;8.406;2022-10-23T11:57:00;18.20;99.90
3408;DHT22;1717;50.240;8.406;2022-10-23T11:59:30;18.30;99.90
3408;DHT22;1717;50.240;8.406;2022-10-23T12:02:00;18.20;99.90
3408;DHT22;1717;50.240;8.406;2022-10-23T12:04:34;18.30;99.90
3408;DHT22;1717;50.240;8.406;2022-10-23T12:07:16;18.40;99.90
3408;DHT22;1717;50.240;8.406;2022-10-23T12:09:53;18.40;99.90
3408;DHT22;1717;50.240;8.406;2022-10-23T12:12:28;18.40;99.90
3408;DHT22;1717;50.240;8.406;2022-10-23T12:15:17;18.50;99.90
3408;DHT22;1717;50.240;8.406;2022-10-23T12:17:45;18.50;99.90
3408;DHT22;1717;50.240;8.406;2022-10-23T12:20:34;18.50;99.90
3408;DHT22;1717;50.240;8.406;2022-10-23T12:23:25;18.60;99.90
3408;DHT22;1717;50.240;8.406;2022-10-23T12:26:05;18.60;99.90
3408;DHT22;1717;50.240;8.406;2022-10-23T12:28:37;18.70;99.90
3408;DHT22;1717;50.240;8.406;2022-10-23T12:31:22;18.70;99.90
3408;DHT22;1717;50.240;8.406;2022-10-23T12:33:57;18.80;99.90
3408;DHT22;1717;50.240;8.406;2022-10-23T12:36:41;18.80;99.90
3408;DHT22;1717;50.240;8.406;2022-10-23T12:39:29;18.90;99.90
3408;DHT22;1717;50.240;8.406;2022-10-23T12:41:57;19.00;99.90
3408;DHT22;1717;50.240;8.406;2022-10-23T12:44:25;19.00;99.90
3408;DHT22;1717;50.240;8.406;2022-10-23T12:46:56;19.10;99.90
3408;DHT22;1717;50.240;8.406;2022-10-23T12:49:27;19.10;99.90
3408;DHT22;1717;50.240;8.406;2022-10-23T12:51:58;19.20;99.90
3408;DHT22;1717;50.240;8.406;2022-10-23T12:54:26;19.20;99.90
3408;DHT22;1717;50.240;8.406;2022-10-23T12:56:55;19.20;99.90
3408;DHT22;1717;50.240;8.406;2022-10-23T12:59:24;19.30;99.90
3408;DHT22;1717;50.240;8.406;2022-10-23T13:01:52;19.30;99.90
3408;DHT22;1717;50.240;8.406;2022-10-23T13:04:27;19.30;99.90
3408;DHT22;1717;50.240;8.406;2022-10-23T13:06:57;19.40;99.90
3408;DHT22;1717;50.240;8.406;2022-10-23T13:09:28;19.40;99.90
3408;DHT22;1717;50.240;8.406;2022-10-23T13:11:57;19.50;99.90
3408;DHT22;1717;50.240;8.406;2022-10-23T13:14:33;19.50;99.90
3408;DHT22;1717;50.240;8.406;2022-10-23T13:17:01;19.50;99.90
3408;DHT22;1717;50.240;8.406;2022-10-23T13:19:29;19.50;99.90
3408;DHT22;1717;50.240;8.406;2022-10-23T13:21:56;19.60;99.90
3408;DHT22;1717;50.240;8.406;2022-10-23T13:24:25;19.60;99.90
3408;DHT22;1717;50.240;8.406;2022-10-23T13:26:53;19.60;99.90
3408;DHT22;1717;50.240;8.406;2022-10-23T13:29:22;19.60;99.90
3408;DHT22;1717;50.240;8.406;2022-10-23T13:31:50;19.70;99.90
3408;DHT22;1717;50.240;8.406;2022-10-23T13:34:22;19.70;99.90
3408;DHT22;1717;50.240;8.406;2022-10-23T13:36:53;19.70;99.90
3408;DHT22;1717;50.240;8.406;2022-10-23T13:39:25;19.70;99.90
3408;DHT22;1717;50.240;8.406;2022-10-23T13:41:53;19.70;99.90
3408;DHT22;1717;50.240;8.406;2022-10-23T13:44:22;19.70;99.90
3408;DHT22;1717;50.240;8.406;2022-10-23T13:46:51;19.70;99.90
3408;DHT22;1717;50.240;8.406;2022-10-23T13:49:18;19.70;99.90
3408;DHT22;1717;50.240;8.406;2022-10-23T13:51:47;19.70;99.90
3408;DHT22;1717;50.240;8.406;2022-10-23T13:54:16;19.80;99.90
3408;DHT22;1717;50.240;8.406;2022-10-23T13:56:44;19.70;99.90
3408;DHT22;1717;50.240;8.406;2022-10-23T13:59:11;19.80;99.90
3408;DHT22;1717;50.240;8.406;2022-10-23T14:01:40;19.80;99.90
3408;DHT22;1717;50.240;8.406;2022-10-23T14:04:08;19.80;99.90
3408;DHT22;1717;50.240;8.406;2022-10-23T14:06:36;19.80;99.90
3408;DHT22;1717;50.240;8.406;2022-10-23T14:09:04;19.80;99.90
3408;DHT22;1717;50.240;8.406;2022-10-23T14:11:31;19.90;99.90
3408;DHT22;1717;50.240;8.406;2022-10-23T14:13:58;19.80;99.90
3408;DHT22;1717;50.240;8.406;2022-10-23T14:16:25;19.80;99.90
3408;DHT22;1717;50.240;8.406;2022-10-23T14:18:54;19.80;99.90
3408;DHT22;1717;50.240;8.406;2022-10-23T14:21:22;19.80;99.90
3408;DHT22;1717;50.240;8.406;2022-10-23T14:23:51;19.80;99.90
3408;DHT22;1717;50.240;8.406;2022-10-23T14:26:20;19.80;99.90
3408;DHT22;1717;50.240;8.406;2022-10-23T14:28:50;19.90;99.90
3408;DHT22;1717;50.240;8.406;2022-10-23T14:31:17;19.80;99.90
3408;DHT22;1717;50.240;8.406;2022-10-23T14:33:45;19.80;99.90
3408;DHT22;1717;50.240;8.406;2022-10-23T14:36:13;19.80;99.90
3408;DHT22;1717;50.240;8.406;2022-10-23T14:38:40;19.70;99.90
3408;DHT22;1717;50.240;8.406;2022-10-23T14:41:10;19.70;99.90
3408;DHT22;1717;50.240;8.406;2022-10-23T14:43:38;19.70;99.90
3408;DHT22;1717;50.240;8.406;2022-10-23T14:46:09;19.70;99.90
3408;DHT22;1717;50.240;8.406;2022-10-23T14:48:36;19.60;99.90
3408;DHT22;1717;50.240;8.406;2022-10-23T14:51:04;19.70;99.90
3408;DHT22;1717;50.240;8.406;2022-10-23T14:53:33;19.60;99.90
3408;DHT22;1717;50.240;8.406;2022-10-23T14:56:01;19.50;99.90
3408;DHT22;1717;50.240;8.406;2022-10-23T14:58:29;19.40;99.90
3408;DHT22;1717;50.240;8.406;2022-10-23T15:00:56;19.30;99.90
3408;DHT22;1717;50.240;8.406;2022-10-23T15:03:24;19.20;99.90
3408;DHT22;1717;50.240;8.406;2022-10-23T15:05:51;19.20;99.90
3408;DHT22;1717;50.240;8.406;2022-10-23T15:08:18;19.20;99.90
3408;DHT22;1717;50.240;8.406;2022-10-23T15:10:47;19.20;99.90
3408;DHT22;1717;50.240;8.406;2022-10-23T15:13:14;19.20;99.90
3408;DHT22;1717;50.240;8.406;2022-10-23T15:15:41;19.10;99.90
3408;DHT22;1717;50.240;8.406;2022-10-23T15:18:07;19.00;99.90
3408;DHT22;1717;50.240;8.406;2022-10-23T15:20:34;19.00;99.90
3408;DHT22;1717;50.240;8.406;2022-10-23T15:23:01;19.00;99.90
3408;DHT22;1717;50.240;8.406;2022-10-23T15:25:28;19.00;99.90
3408;DHT22;1717;50.240;8.406;2022-10-23T15:27:56;19.00;99.90
3408;DHT22;1717;50.240;8.406;2022-10-23T15:30:23;18.90;99.90
3408;DHT22;1717;50.240;8.406;2022-10-23T15:32:50;18.90;99.90
3408;DHT22;1717;50.240;8.406;2022-10-23T15:35:17;18.80;99.90
3408;DHT22;1717;50.240;8.406;2022-10-23T15:37:44;18.70;99.90
3408;DHT22;1717;50.240;8.406;2022-10-23T15:40:12;18.70;99.90
3408;DHT22;1717;50.240;8.406;2022-10-23T15:42:39;18.70;99.90
3408;DHT22;1717;50.240;8.406;2022-10-23T15:45:09;18.60;99.90
3408;DHT22;1717;50.240;8.406;2022-10-23T15:47:38;18.60;99.90
3408;DHT22;1717;50.240;8.406;2022-10-23T15:50:07;18.70;99.90
3408;DHT22;1717;50.240;8.406;2022-10-23T15:52:34;18.60;99.90
3408;DHT22;1717;50.240;8.406;2022-10-23T15:55:01;18.50;99.90
3408;DHT22;1717;50.240;8.406;2022-10-23T15:57:28;18.40;99.90
3408;DHT22;1717;50.240;8.406;2022-10-23T15:59:56;18.50;99.90
3408;DHT22;1717;50.240;8.406;2022-10-23T16:02:26;18.50;99.90
3408;DHT22;1717;50.240;8.406;2022-10-23T16:04:54;18.50;99.90
3408;DHT22;1717;50.240;8.406;2022-10-23T16:07:21;18.50;99.90
3408;DHT22;1717;50.240;8.406;2022-10-23T16:09:48;18.40;99.90
3408;DHT22;1717;50.240;8.406;2022-10-23T16:12:15;18.40;99.90
3408;DHT22;1717;50.240;8.406;2022-10-23T16:14:42;18.40;99.90
3408;DHT22;1717;50.240;8.406;2022-10-23T16:17:10;18.40;99.90
3408;DHT22;1717;50.240;8.406;2022-10-23T16:19:39;18.40;99.90
3408;DHT22;1717;50.240;8.406;2022-10-23T16:22:06;18.50;99.90
3408;DHT22;1717;50.240;8.406;2022-10-23T16:24:33;18.40;99.90
3408;DHT22;1717;50.240;8.406;2022-10-23T16:27:01;18.40;99.90